sensor_id;sensor_type;location;lat;lon;timestamp;pressure;altitude;pressure_sealevel;temperature;humidity
77482;BME280;66582;43.004;-75.010;2023-06-26T00:01:09;99358.73;;;25.14;97.85
77482;BME280;66582;43.004;-75.010;2023-06-26T00:03:34;99356.24;;;25.97;95.60
77482;BME280;66582;43.004;-75.010;2023-06-26T00:05:59;99354.69;;;25.16;98.38
77482;BME280;66582;43.004;-75.010;2023-06-26T00:08:25;99363.67;;;21.57;100.00
77482;BME280;66582;43.004;-75.010;2023-06-26T00:10:49;99353.45;;;23.78;100.00
77482;BME280;66582;43.004;-75.010;2023-06-26T00:13:15;99346.38;;;24.30;100.00
77482;BME280;66582;43.004;-75.010;2023-06-26T00:15:40;99343.73;;;22.71;100.00
77482;BME280;66582;43.004;-75.010;2023-06-26T00:18:05;99348.72;;;22.47;100.00
77482;BME280;66582;43.004;-75.010;2023-06-26T00:20:30;99346.89;;;23.00;100.00
77482;BME280;66582;43.004;-75.010;2023-06-26T00:22:56;99355.68;;;21.81;100.00
77482;BME280;66582;43.004;-75.010;2023-06-26T00:25:21;99358.98;;;21.04;100.00
77482;BME280;66582;43.004;-75.010;2023-06-26T00:27:46;99366.17;;;20.76;100.00
77482;BME280;66582;43.004;-75.010;2023-06-26T00:30:12;99367.27;;;21.15;100.00
77482;BME280;66582;43.004;-75.010;2023-06-26T00:32:36;99371.37;;;20.18;100.00
77482;BME280;66582;43.004;-75.010;2023-06-26T00:35:01;99365.82;;;22.13;100.00
77482;BME280;66582;43.004;-75.010;2023-06-26T00:37:26;99362.05;;;21.53;100.00
77482;BME280;66582;43.004;-75.010;2023-06-26T00:39:52;99359.46;;;23.48;100.00
77482;BME280;66582;43.004;-75.010;2023-06-26T00:42:18;99365.38;;;23.78;100.00
77482;BME280;66582;43.004;-75.010;2023-06-26T00:44:43;99365.70;;;25.64;100.00
77482;BME280;66582;43.004;-75.010;2023-06-26T00:47:08;99366.27;;;27.43;93.09
77482;BME280;66582;43.004;-75.010;2023-06-26T00:49:34;99372.99;;;25.55;96.68
77482;BME280;66582;43.004;-75.010;2023-06-26T00:51:58;99380.31;;;25.17;97.73
77482;BME280;66582;43.004;-75.010;2023-06-26T00:54:24;99386.07;;;25.01;98.67
77482;BME280;66582;43.004;-75.010;2023-06-26T00:56:49;99384.99;;;24.75;99.93
77482;BME280;66582;43.004;-75.010;2023-06-26T00:59:14;99386.57;;;24.58;100.00
77482;BME280;66582;43.004;-75.010;2023-06-26T01:01:39;99385.18;;;25.03;97.56
77482;BME280;66582;43.004;-75.010;2023-06-26T01:04:04;99385.59;;;25.20;97.72
77482;BME280;66582;43.004;-75.010;2023-06-26T01:06:30;99389.46;;;25.15;97.89
77482;BME280;66582;43.004;-75.010;2023-06-26T01:08:55;99391.00;;;24.97;99.00
77482;BME280;66582;43.004;-75.010;2023-06-26T01:11:20;99398.72;;;22.90;100.00
77482;BME280;66582;43.004;-75.010;2023-06-26T01:13:46;99400.39;;;24.80;100.00
77482;BME280;66582;43.004;-75.010;2023-06-26T01:16:11;99401.05;;;24.15;100.00
77482;BME280;66582;43.004;-75.010;2023-06-26T01:18:37;99400.91;;;24.78;100.00
77482;BME280;66582;43.004;-75.010;2023-06-26T01:21:02;99402.12;;;25.56;96.33
77482;BME280;66582;43.004;-75.010;2023-06-26T01:23:31;99407.30;;;24.68;99.14
77482;BME280;66582;43.004;-75.010;2023-06-26T01:28:16;99406.81;;;25.53;92.72
77482;BME280;66582;43.004;-75.010;2023-06-26T01:30:44;99406.72;;;25.89;91.27
77482;BME280;66582;43.004;-75.010;2023-06-26T01:33:08;99411.42;;;25.17;93.27
77482;BME280;66582;43.004;-75.010;2023-06-26T01:35:32;99413.80;;;25.07;95.79
77482;BME280;66582;43.004;-75.010;2023-06-26T01:40:23;99399.07;;;24.90;93.81
77482;BME280;66582;43.004;-75.010;2023-06-26T01:42:48;99398.13;;;25.79;93.39
77482;BME280;66582;43.004;-75.010;2023-06-26T01:45:17;99411.61;;;22.74;100.00
77482;BME280;66582;43.004;-75.010;2023-06-26T01:47:43;99403.29;;;24.80;96.76
77482;BME280;66582;43.004;-75.010;2023-06-26T01:50:09;99410.02;;;24.07;100.00
77482;BME280;66582;43.004;-75.010;2023-06-26T01:52:35;99399.02;;;25.24;94.48
77482;BME280;66582;43.004;-75.010;2023-06-26T01:55:02;99405.01;;;22.89;100.00
77482;BME280;66582;43.004;-75.010;2023-06-26T01:57:20;99398.81;;;24.10;98.62
77482;BME280;66582;43.004;-75.010;2023-06-26T01:59:44;99397.57;;;24.99;94.52
77482;BME280;66582;43.004;-75.010;2023-06-26T02:02:12;99386.84;;;24.89;95.34
77482;BME280;66582;43.004;-75.010;2023-06-26T02:04:35;99395.22;;;24.83;97.01
77482;BME280;66582;43.004;-75.010;2023-06-26T02:07:00;99394.40;;;24.88;96.07
77482;BME280;66582;43.004;-75.010;2023-06-26T02:09:26;99388.99;;;26.43;87.52
77482;BME280;66582;43.004;-75.010;2023-06-26T02:11:50;99391.92;;;25.04;91.19
77482;BME280;66582;43.004;-75.010;2023-06-26T02:14:16;99397.19;;;25.10;91.98
77482;BME280;66582;43.004;-75.010;2023-06-26T02:16:41;99402.87;;;25.27;90.66
77482;BME280;66582;43.004;-75.010;2023-06-26T02:19:07;99398.01;;;25.60;89.64
77482;BME280;66582;43.004;-75.010;2023-06-26T02:21:31;99394.91;;;25.15;92.39
77482;BME280;66582;43.004;-75.010;2023-06-26T02:23:57;99397.19;;;24.90;93.16
77482;BME280;66582;43.004;-75.010;2023-06-26T02:26:23;99397.03;;;24.78;96.23
77482;BME280;66582;43.004;-75.010;2023-06-26T02:28:47;99396.55;;;25.40;93.13
77482;BME280;66582;43.004;-75.010;2023-06-26T02:31:12;99399.50;;;24.74;92.54
77482;BME280;66582;43.004;-75.010;2023-06-26T02:33:37;99398.68;;;26.35;85.71
77482;BME280;66582;43.004;-75.010;2023-06-26T02:36:03;99408.65;;;21.40;100.00
77482;BME280;66582;43.004;-75.010;2023-06-26T02:38:28;99413.21;;;22.19;100.00
77482;BME280;66582;43.004;-75.010;2023-06-26T02:40:54;99411.99;;;23.66;100.00
77482;BME280;66582;43.004;-75.010;2023-06-26T02:43:18;99411.52;;;24.28;98.49
77482;BME280;66582;43.004;-75.010;2023-06-26T02:45:44;99408.82;;;26.20;88.86
77482;BME280;66582;43.004;-75.010;2023-06-26T02:48:09;99405.97;;;26.85;84.78
77482;BME280;66582;43.004;-75.010;2023-06-26T02:50:33;99407.32;;;26.18;84.27
77482;BME280;66582;43.004;-75.010;2023-06-26T02:52:59;99402.84;;;25.71;87.35
77482;BME280;66582;43.004;-75.010;2023-06-26T02:55:24;99402.84;;;25.89;86.08
77482;BME280;66582;43.004;-75.010;2023-06-26T02:57:49;99399.34;;;26.90;82.08
77482;BME280;66582;43.004;-75.010;2023-06-26T03:00:15;99405.73;;;23.18;95.50
77482;BME280;66582;43.004;-75.010;2023-06-26T03:02:41;99411.11;;;20.51;100.00
77482;BME280;66582;43.004;-75.010;2023-06-26T03:05:05;99412.23;;;22.82;100.00
77482;BME280;66582;43.004;-75.010;2023-06-26T03:07:30;99411.95;;;21.27;100.00
77482;BME280;66582;43.004;-75.010;2023-06-26T03:09:55;99403.09;;;24.12;99.17
77482;BME280;66582;43.004;-75.010;2023-06-26T03:12:20;99405.61;;;24.37;97.84
77482;BME280;66582;43.004;-75.010;2023-06-26T03:14:45;99412.10;;;24.61;96.05
77482;BME280;66582;43.004;-75.010;2023-06-26T03:17:10;99412.07;;;25.06;92.57
77482;BME280;66582;43.004;-75.010;2023-06-26T03:19:36;99408.20;;;24.62;92.92
77482;BME280;66582;43.004;-75.010;2023-06-26T03:22:01;99403.55;;;24.99;92.01
77482;BME280;66582;43.004;-75.010;2023-06-26T03:24:26;99412.13;;;21.67;100.00
77482;BME280;66582;43.004;-75.010;2023-06-26T03:26:51;99420.19;;;19.23;100.00
77482;BME280;66582;43.004;-75.010;2023-06-26T03:29:16;99428.81;;;18.46;100.00
77482;BME280;66582;43.004;-75.010;2023-06-26T03:31:42;99416.02;;;21.23;100.00
77482;BME280;66582;43.004;-75.010;2023-06-26T03:34:07;99411.95;;;23.42;100.00
77482;BME280;66582;43.004;-75.010;2023-06-26T03:36:32;99409.81;;;24.25;100.00
77482;BME280;66582;43.004;-75.010;2023-06-26T03:38:57;99411.29;;;23.82;100.00
77482;BME280;66582;43.004;-75.010;2023-06-26T03:41:23;99408.32;;;24.97;99.82
77482;BME280;66582;43.004;-75.010;2023-06-26T03:43:48;99409.10;;;26.50;90.03
77482;BME280;66582;43.004;-75.010;2023-06-26T03:46:13;99408.55;;;26.46;85.83
77482;BME280;66582;43.004;-75.010;2023-06-26T03:48:38;99410.28;;;25.33;92.26
77482;BME280;66582;43.004;-75.010;2023-06-26T03:51:03;99410.84;;;25.47;89.21
77482;BME280;66582;43.004;-75.010;2023-06-26T03:53:28;99407.94;;;24.86;91.89
77482;BME280;66582;43.004;-75.010;2023-06-26T03:55:54;99397.23;;;25.84;87.85
77482;BME280;66582;43.004;-75.010;2023-06-26T03:58:18;99395.81;;;26.20;85.22
77482;BME280;66582;43.004;-75.010;2023-06-26T04:00:44;99397.06;;;24.22;94.75
77482;BME280;66582;43.004;-75.010;2023-06-26T04:03:09;99395.25;;;25.62;87.18
77482;BME280;66582;43.004;-75.010;2023-06-26T04:05:34;99394.96;;;24.96;90.66
77482;BME280;66582;43.004;-75.010;2023-06-26T04:07:59;99398.56;;;24.14;96.65
77482;BME280;66582;43.004;-75.010;2023-06-26T04:10:24;99404.70;;;24.46;94.33
77482;BME280;66582;43.004;-75.010;2023-06-26T04:12:49;99408.29;;;24.76;91.09
77482;BME280;66582;43.004;-75.010;2023-06-26T04:15:15;99411.45;;;25.01;88.69
77482;BME280;66582;43.004;-75.010;2023-06-26T04:17:40;99403.07;;;25.32;86.72
77482;BME280;66582;43.004;-75.010;2023-06-26T04:20:07;99406.70;;;21.73;100.00
77482;BME280;66582;43.004;-75.010;2023-06-26T04:22:31;99415.68;;;20.36;100.00
77482;BME280;66582;43.004;-75.010;2023-06-26T04:24:56;99405.01;;;23.26;100.00
77482;BME280;66582;43.004;-75.010;2023-06-26T04:27:21;99399.43;;;22.41;100.00
77482;BME280;66582;43.004;-75.010;2023-06-26T04:29:46;99395.08;;;19.18;100.00
77482;BME280;66582;43.004;-75.010;2023-06-26T04:32:12;99387.97;;;19.49;100.00
77482;BME280;66582;43.004;-75.010;2023-06-26T04:34:38;99385.03;;;19.33;100.00
77482;BME280;66582;43.004;-75.010;2023-06-26T04:37:03;99379.39;;;21.52;100.00
77482;BME280;66582;43.004;-75.010;2023-06-26T04:39:27;99383.68;;;22.19;100.00
77482;BME280;66582;43.004;-75.010;2023-06-26T04:41:53;99395.39;;;22.05;100.00
77482;BME280;66582;43.004;-75.010;2023-06-26T04:44:18;99396.41;;;22.06;100.00
77482;BME280;66582;43.004;-75.010;2023-06-26T04:46:44;99396.19;;;19.74;100.00
77482;BME280;66582;43.004;-75.010;2023-06-26T04:49:09;99392.58;;;19.85;100.00
77482;BME280;66582;43.004;-75.010;2023-06-26T04:51:33;99384.95;;;21.30;100.00
77482;BME280;66582;43.004;-75.010;2023-06-26T04:53:59;99390.79;;;21.60;100.00
77482;BME280;66582;43.004;-75.010;2023-06-26T04:56:24;99390.08;;;22.37;100.00
77482;BME280;66582;43.004;-75.010;2023-06-26T04:58:49;99384.80;;;21.34;100.00
77482;BME280;66582;43.004;-75.010;2023-06-26T05:01:14;99383.14;;;19.65;100.00
77482;BME280;66582;43.004;-75.010;2023-06-26T05:03:40;99383.28;;;19.93;100.00
77482;BME280;66582;43.004;-75.010;2023-06-26T05:06:04;99378.86;;;21.39;100.00
77482;BME280;66582;43.004;-75.010;2023-06-26T05:08:30;99373.60;;;23.16;100.00
77482;BME280;66582;43.004;-75.010;2023-06-26T05:10:55;99374.04;;;22.59;100.00
77482;BME280;66582;43.004;-75.010;2023-06-26T05:13:20;99368.32;;;25.29;96.36
77482;BME280;66582;43.004;-75.010;2023-06-26T05:15:48;99371.15;;;26.21;89.42
77482;BME280;66582;43.004;-75.010;2023-06-26T05:18:10;99365.99;;;26.41;84.18
77482;BME280;66582;43.004;-75.010;2023-06-26T05:20:37;99364.79;;;25.00;89.01
77482;BME280;66582;43.004;-75.010;2023-06-26T05:23:02;99354.17;;;25.09;89.63
77482;BME280;66582;43.004;-75.010;2023-06-26T05:25:27;99349.81;;;24.62;92.26
77482;BME280;66582;43.004;-75.010;2023-06-26T05:27:52;99347.64;;;25.40;87.61
77482;BME280;66582;43.004;-75.010;2023-06-26T05:30:18;99352.71;;;25.31;85.68
77482;BME280;66582;43.004;-75.010;2023-06-26T05:32:41;99352.99;;;25.35;85.27
77482;BME280;66582;43.004;-75.010;2023-06-26T05:35:07;99349.52;;;25.19;86.98
77482;BME280;66582;43.004;-75.010;2023-06-26T05:37:33;99352.84;;;20.17;100.00
77482;BME280;66582;43.004;-75.010;2023-06-26T05:39:57;99349.24;;;19.79;100.00
77482;BME280;66582;43.004;-75.010;2023-06-26T05:42:22;99339.10;;;23.01;100.00
77482;BME280;66582;43.004;-75.010;2023-06-26T05:44:47;99335.07;;;23.79;98.05
77482;BME280;66582;43.004;-75.010;2023-06-26T05:47:12;99327.02;;;24.85;91.68
77482;BME280;66582;43.004;-75.010;2023-06-26T05:49:37;99322.19;;;25.93;86.93
77482;BME280;66582;43.004;-75.010;2023-06-26T05:52:04;99319.53;;;24.81;85.69
77482;BME280;66582;43.004;-75.010;2023-06-26T05:54:29;99320.62;;;24.59;88.53
77482;BME280;66582;43.004;-75.010;2023-06-26T05:56:56;99321.04;;;24.39;91.06
77482;BME280;66582;43.004;-75.010;2023-06-26T05:59:19;99323.90;;;23.96;92.40
77482;BME280;66582;43.004;-75.010;2023-06-26T06:01:43;99322.44;;;25.32;85.94
77482;BME280;66582;43.004;-75.010;2023-06-26T06:04:08;99322.50;;;25.94;80.97
77482;BME280;66582;43.004;-75.010;2023-06-26T06:06:34;99328.41;;;22.11;96.40
77482;BME280;66582;43.004;-75.010;2023-06-26T06:08:59;99317.29;;;24.08;91.79
77482;BME280;66582;43.004;-75.010;2023-06-26T06:11:24;99314.05;;;24.03;90.42
77482;BME280;66582;43.004;-75.010;2023-06-26T06:13:50;99312.79;;;23.99;92.06
77482;BME280;66582;43.004;-75.010;2023-06-26T06:16:15;99306.57;;;24.88;87.17
77482;BME280;66582;43.004;-75.010;2023-06-26T06:18:40;99311.93;;;24.84;86.82
77482;BME280;66582;43.004;-75.010;2023-06-26T06:21:06;99317.76;;;23.87;94.24
77482;BME280;66582;43.004;-75.010;2023-06-26T06:23:31;99323.29;;;24.30;90.23
77482;BME280;66582;43.004;-75.010;2023-06-26T06:25:56;99323.61;;;24.77;90.15
77482;BME280;66582;43.004;-75.010;2023-06-26T06:28:23;99325.58;;;21.98;100.00
77482;BME280;66582;43.004;-75.010;2023-06-26T06:30:47;99330.19;;;20.77;100.00
77482;BME280;66582;43.004;-75.010;2023-06-26T06:33:13;99329.44;;;23.07;95.97
77482;BME280;66582;43.004;-75.010;2023-06-26T06:35:37;99332.72;;;24.28;88.53
77482;BME280;66582;43.004;-75.010;2023-06-26T06:38:03;99337.64;;;23.10;95.08
77482;BME280;66582;43.004;-75.010;2023-06-26T06:40:29;99332.56;;;23.99;90.58
77482;BME280;66582;43.004;-75.010;2023-06-26T06:42:54;99338.91;;;21.49;100.00
77482;BME280;66582;43.004;-75.010;2023-06-26T06:45:18;99341.63;;;18.85;100.00
77482;BME280;66582;43.004;-75.010;2023-06-26T06:47:44;99341.32;;;19.95;100.00
77482;BME280;66582;43.004;-75.010;2023-06-26T06:50:09;99331.96;;;20.52;100.00
77482;BME280;66582;43.004;-75.010;2023-06-26T06:52:35;99319.42;;;23.84;99.26
77482;BME280;66582;43.004;-75.010;2023-06-26T06:54:59;99319.45;;;22.36;99.32
77482;BME280;66582;43.004;-75.010;2023-06-26T06:57:25;99310.94;;;22.68;94.51
77482;BME280;66582;43.004;-75.010;2023-06-26T06:59:50;99299.93;;;24.27;88.64
77482;BME280;66582;43.004;-75.010;2023-06-26T07:04:40;99305.89;;;23.73;90.66
77482;BME280;66582;43.004;-75.010;2023-06-26T07:07:05;99298.90;;;25.22;85.49
77482;BME280;66582;43.004;-75.010;2023-06-26T07:09:30;99302.65;;;22.13;93.87
77482;BME280;66582;43.004;-75.010;2023-06-26T07:11:57;99302.85;;;21.73;100.00
77482;BME280;66582;43.004;-75.010;2023-06-26T07:14:21;99303.51;;;21.09;100.00
77482;BME280;66582;43.004;-75.010;2023-06-26T07:16:46;99301.63;;;20.99;100.00
77482;BME280;66582;43.004;-75.010;2023-06-26T07:19:11;99293.95;;;23.34;95.15
77482;BME280;66582;43.004;-75.010;2023-06-26T07:21:36;99290.72;;;24.22;88.83
77482;BME280;66582;43.004;-75.010;2023-06-26T07:24:02;99288.76;;;23.80;89.99
77482;BME280;66582;43.004;-75.010;2023-06-26T07:26:27;99291.04;;;22.95;92.17
77482;BME280;66582;43.004;-75.010;2023-06-26T07:28:53;99289.66;;;24.34;87.54
77482;BME280;66582;43.004;-75.010;2023-06-26T07:31:18;99288.20;;;22.22;95.35
77482;BME280;66582;43.004;-75.010;2023-06-26T07:33:43;99286.00;;;19.84;100.00
77482;BME280;66582;43.004;-75.010;2023-06-26T07:36:08;99294.77;;;18.89;100.00
77482;BME280;66582;43.004;-75.010;2023-06-26T07:38:33;99292.41;;;21.54;100.00
77482;BME280;66582;43.004;-75.010;2023-06-26T07:40:59;99288.36;;;22.07;99.95
77482;BME280;66582;43.004;-75.010;2023-06-26T07:43:24;99285.88;;;23.08;95.23
77482;BME280;66582;43.004;-75.010;2023-06-26T07:45:50;99283.67;;;24.17;89.60
77482;BME280;66582;43.004;-75.010;2023-06-26T07:48:14;99280.27;;;21.74;96.21
77482;BME280;66582;43.004;-75.010;2023-06-26T07:50:39;99280.56;;;20.37;100.00
77482;BME280;66582;43.004;-75.010;2023-06-26T07:53:04;99278.61;;;22.72;97.31
77482;BME280;66582;43.004;-75.010;2023-06-26T07:55:30;99283.30;;;21.78;99.16
77482;BME280;66582;43.004;-75.010;2023-06-26T07:57:56;99282.98;;;20.93;100.00
77482;BME280;66582;43.004;-75.010;2023-06-26T08:00:21;99292.92;;;18.55;100.00
77482;BME280;66582;43.004;-75.010;2023-06-26T08:02:46;99288.17;;;19.42;100.00
77482;BME280;66582;43.004;-75.010;2023-06-26T08:05:11;99279.14;;;20.91;100.00
77482;BME280;66582;43.004;-75.010;2023-06-26T08:07:37;99283.77;;;18.48;100.00
77482;BME280;66582;43.004;-75.010;2023-06-26T08:10:02;99284.59;;;17.68;100.00
77482;BME280;66582;43.004;-75.010;2023-06-26T08:12:27;99289.27;;;17.64;100.00
77482;BME280;66582;43.004;-75.010;2023-06-26T08:14:52;99279.35;;;18.03;100.00
77482;BME280;66582;43.004;-75.010;2023-06-26T08:17:17;99287.37;;;17.15;100.00
77482;BME280;66582;43.004;-75.010;2023-06-26T08:19:42;99278.30;;;19.36;100.00
77482;BME280;66582;43.004;-75.010;2023-06-26T08:22:08;99275.17;;;20.93;100.00
77482;BME280;66582;43.004;-75.010;2023-06-26T08:24:33;99272.23;;;21.36;100.00
77482;BME280;66582;43.004;-75.010;2023-06-26T08:26:58;99283.55;;;18.90;100.00
77482;BME280;66582;43.004;-75.010;2023-06-26T08:29:23;99276.24;;;20.15;100.00
77482;BME280;66582;43.004;-75.010;2023-06-26T08:31:48;99275.54;;;21.07;100.00
77482;BME280;66582;43.004;-75.010;2023-06-26T08:34:14;99271.18;;;22.35;100.00
77482;BME280;66582;43.004;-75.010;2023-06-26T08:36:39;99276.22;;;22.03;100.00
77482;BME280;66582;43.004;-75.010;2023-06-26T08:39:05;99271.56;;;22.49;99.46
77482;BME280;66582;43.004;-75.010;2023-06-26T08:41:30;99274.50;;;22.41;98.17
77482;BME280;66582;43.004;-75.010;2023-06-26T08:43:54;99283.73;;;22.53;100.00
77482;BME280;66582;43.004;-75.010;2023-06-26T08:46:20;99286.80;;;22.07;99.82
77482;BME280;66582;43.004;-75.010;2023-06-26T08:48:52;99294.12;;;18.56;100.00
77482;BME280;66582;43.004;-75.010;2023-06-26T08:51:13;99301.98;;;17.94;100.00
77482;BME280;66582;43.004;-75.010;2023-06-26T08:53:42;99301.83;;;18.07;100.00
77482;BME280;66582;43.004;-75.010;2023-06-26T08:56:01;99292.18;;;18.94;100.00
77482;BME280;66582;43.004;-75.010;2023-06-26T08:58:27;99297.91;;;17.54;100.00
77482;BME280;66582;43.004;-75.010;2023-06-26T09:00:51;99295.57;;;17.80;100.00
77482;BME280;66582;43.004;-75.010;2023-06-26T09:03:16;99293.80;;;20.13;100.00
77482;BME280;66582;43.004;-75.010;2023-06-26T09:05:42;99291.57;;;21.83;100.00
77482;BME280;66582;43.004;-75.010;2023-06-26T09:08:08;99296.39;;;19.74;100.00
77482;BME280;66582;43.004;-75.010;2023-06-26T09:10:32;99300.15;;;21.36;100.00
77482;BME280;66582;43.004;-75.010;2023-06-26T09:12:57;99305.86;;;20.85;100.00
77482;BME280;66582;43.004;-75.010;2023-06-26T09:15:22;99312.68;;;21.36;100.00
77482;BME280;66582;43.004;-75.010;2023-06-26T09:17:49;99313.47;;;21.09;100.00
77482;BME280;66582;43.004;-75.010;2023-06-26T09:20:13;99318.82;;;19.88;100.00
77482;BME280;66582;43.004;-75.010;2023-06-26T09:22:41;99313.44;;;20.43;100.00
77482;BME280;66582;43.004;-75.010;2023-06-26T09:25:04;99310.83;;;22.17;100.00
77482;BME280;66582;43.004;-75.010;2023-06-26T09:27:28;99314.14;;;19.25;100.00
77482;BME280;66582;43.004;-75.010;2023-06-26T09:29:53;99326.17;;;16.54;100.00
77482;BME280;66582;43.004;-75.010;2023-06-26T09:32:19;99327.72;;;16.69;100.00
77482;BME280;66582;43.004;-75.010;2023-06-26T09:34:44;99323.38;;;18.03;100.00
77482;BME280;66582;43.004;-75.010;2023-06-26T09:37:12;99315.75;;;19.39;100.00
77482;BME280;66582;43.004;-75.010;2023-06-26T09:39:35;99321.02;;;17.83;100.00
77482;BME280;66582;43.004;-75.010;2023-06-26T09:42:00;99321.59;;;17.26;100.00
77482;BME280;66582;43.004;-75.010;2023-06-26T09:44:26;99311.38;;;20.71;100.00
77482;BME280;66582;43.004;-75.010;2023-06-26T09:46:50;99313.28;;;22.03;100.00
77482;BME280;66582;43.004;-75.010;2023-06-26T09:49:16;99319.89;;;20.80;100.00
77482;BME280;66582;43.004;-75.010;2023-06-26T09:51:42;99319.50;;;22.39;100.00
77482;BME280;66582;43.004;-75.010;2023-06-26T09:54:08;99304.89;;;23.08;99.54
77482;BME280;66582;43.004;-75.010;2023-06-26T09:56:33;99306.01;;;23.33;97.88
77482;BME280;66582;43.004;-75.010;2023-06-26T09:59:00;99309.81;;;23.72;92.54
77482;BME280;66582;43.004;-75.010;2023-06-26T10:01:23;99314.50;;;23.36;96.34
77482;BME280;66582;43.004;-75.010;2023-06-26T10:03:49;99318.44;;;23.27;95.52
77482;BME280;66582;43.004;-75.010;2023-06-26T10:06:14;99318.81;;;23.70;93.81
77482;BME280;66582;43.004;-75.010;2023-06-26T10:08:40;99314.72;;;24.12;93.12
77482;BME280;66582;43.004;-75.010;2023-06-26T10:11:05;99315.50;;;24.01;91.53
77482;BME280;66582;43.004;-75.010;2023-06-26T10:13:34;99314.44;;;24.30;89.20
77482;BME280;66582;43.004;-75.010;2023-06-26T10:15:55;99308.07;;;24.58;88.28
77482;BME280;66582;43.004;-75.010;2023-06-26T10:18:22;99305.99;;;25.11;84.76
77482;BME280;66582;43.004;-75.010;2023-06-26T10:20:46;99308.52;;;24.13;90.00
77482;BME280;66582;43.004;-75.010;2023-06-26T10:23:11;99313.60;;;23.97;90.12
77482;BME280;66582;43.004;-75.010;2023-06-26T10:25:38;99319.05;;;22.69;96.15
77482;BME280;66582;43.004;-75.010;2023-06-26T10:28:02;99316.28;;;24.57;89.86
77482;BME280;66582;43.004;-75.010;2023-06-26T10:30:28;99304.47;;;25.20;85.60
77482;BME280;66582;43.004;-75.010;2023-06-26T10:32:51;99303.29;;;25.75;82.57
77482;BME280;66582;43.004;-75.010;2023-06-26T10:35:17;99304.72;;;24.68;85.63
77482;BME280;66582;43.004;-75.010;2023-06-26T10:37:43;99310.07;;;23.15;94.52
77482;BME280;66582;43.004;-75.010;2023-06-26T10:40:07;99303.58;;;24.75;88.76
77482;BME280;66582;43.004;-75.010;2023-06-26T10:42:36;99299.33;;;24.82;88.48
77482;BME280;66582;43.004;-75.010;2023-06-26T10:47:31;99296.52;;;24.71;87.40
77482;BME280;66582;43.004;-75.010;2023-06-26T10:49:47;99299.95;;;26.28;81.16
77482;BME280;66582;43.004;-75.010;2023-06-26T10:52:13;99307.38;;;24.70;84.51
77482;BME280;66582;43.004;-75.010;2023-06-26T10:54:38;99326.87;;;21.17;100.00
77482;BME280;66582;43.004;-75.010;2023-06-26T10:57:05;99318.01;;;22.63;100.00
77482;BME280;66582;43.004;-75.010;2023-06-26T10:59:30;99310.25;;;23.45;95.93
77482;BME280;66582;43.004;-75.010;2023-06-26T11:01:56;99299.46;;;23.65;95.44
77482;BME280;66582;43.004;-75.010;2023-06-26T11:04:22;99296.25;;;24.41;91.75
77482;BME280;66582;43.004;-75.010;2023-06-26T11:06:46;99298.17;;;25.41;88.24
77482;BME280;66582;43.004;-75.010;2023-06-26T11:09:14;99298.54;;;24.21;92.06
77482;BME280;66582;43.004;-75.010;2023-06-26T11:14:00;99295.66;;;23.88;93.07
77482;BME280;66582;43.004;-75.010;2023-06-26T11:16:26;99300.23;;;22.97;95.64
77482;BME280;66582;43.004;-75.010;2023-06-26T11:18:50;99320.35;;;18.93;100.00
77482;BME280;66582;43.004;-75.010;2023-06-26T11:21:15;99314.94;;;20.20;100.00
77482;BME280;66582;43.004;-75.010;2023-06-26T11:23:41;99311.80;;;21.24;100.00
77482;BME280;66582;43.004;-75.010;2023-06-26T11:26:16;99310.72;;;21.69;100.00
77482;BME280;66582;43.004;-75.010;2023-06-26T11:28:32;99299.25;;;22.85;100.00
77482;BME280;66582;43.004;-75.010;2023-06-26T11:30:57;99305.96;;;20.70;100.00
77482;BME280;66582;43.004;-75.010;2023-06-26T11:33:27;99303.76;;;19.78;100.00
77482;BME280;66582;43.004;-75.010;2023-06-26T11:35:48;99304.42;;;22.18;100.00
77482;BME280;66582;43.004;-75.010;2023-06-26T11:38:12;99313.92;;;19.50;100.00
77482;BME280;66582;43.004;-75.010;2023-06-26T11:40:38;99321.18;;;19.49;100.00
77482;BME280;66582;43.004;-75.010;2023-06-26T11:43:03;99316.78;;;22.00;100.00
77482;BME280;66582;43.004;-75.010;2023-06-26T11:45:29;99322.98;;;19.49;100.00
77482;BME280;66582;43.004;-75.010;2023-06-26T11:47:56;99313.30;;;20.42;100.00
77482;BME280;66582;43.004;-75.010;2023-06-26T11:50:18;99301.46;;;23.24;100.00
77482;BME280;66582;43.004;-75.010;2023-06-26T11:52:44;99300.20;;;23.44;100.00
77482;BME280;66582;43.004;-75.010;2023-06-26T11:55:10;99298.05;;;24.33;100.00
77482;BME280;66582;43.004;-75.010;2023-06-26T11:57:36;99307.00;;;24.70;97.44
77482;BME280;66582;43.004;-75.010;2023-06-26T12:02:25;99306.83;;;24.42;99.58
77482;BME280;66582;43.004;-75.010;2023-06-26T12:04:50;99309.61;;;25.31;92.89
77482;BME280;66582;43.004;-75.010;2023-06-26T12:07:15;99305.31;;;25.08;92.31
77482;BME280;66582;43.004;-75.010;2023-06-26T12:09:43;99303.98;;;24.92;93.32
77482;BME280;66582;43.004;-75.010;2023-06-26T12:12:06;99302.46;;;25.14;91.99
77482;BME280;66582;43.004;-75.010;2023-06-26T12:14:32;99293.44;;;26.08;88.89
77482;BME280;66582;43.004;-75.010;2023-06-26T12:17:09;99294.25;;;25.55;86.98
77482;BME280;66582;43.004;-75.010;2023-06-26T12:19:25;99293.06;;;24.41;94.33
77482;BME280;66582;43.004;-75.010;2023-06-26T12:21:48;99285.53;;;25.35;89.69
77482;BME280;66582;43.004;-75.010;2023-06-26T12:24:15;99274.48;;;25.95;85.00
77482;BME280;66582;43.004;-75.010;2023-06-26T12:26:38;99277.69;;;23.82;92.55
77482;BME280;66582;43.004;-75.010;2023-06-26T12:29:05;99279.29;;;23.93;98.30
77482;BME280;66582;43.004;-75.010;2023-06-26T12:31:29;99279.68;;;24.87;90.24
77482;BME280;66582;43.004;-75.010;2023-06-26T12:33:54;99288.82;;;24.57;91.11
77482;BME280;66582;43.004;-75.010;2023-06-26T12:36:19;99291.04;;;24.97;90.79
77482;BME280;66582;43.004;-75.010;2023-06-26T12:38:48;99289.87;;;25.39;89.22